createdAt,value
2023-04-15T00:00:54.113Z,40.00
2023-04-15T00:01:54.179Z,39.87
2023-04-15T00:02:54.269Z,40.26
2023-04-15T00:03:54.118Z,39.68
2023-04-15T00:04:54.089Z,40.72
2023-04-15T00:05:54.059Z,41.37
2023-04-15T00:06:54.043Z,42.07
2023-04-15T00:07:54.051Z,46.48
2023-04-15T00:08:54.028Z,41.01
2023-04-15T00:09:55.187Z,44.75
2023-04-15T00:10:55.121Z,41.24
2023-04-15T00:11:55.105Z,40.89
2023-04-15T00:12:55.107Z,40.01
2023-04-15T00:13:55.082Z,38.91
2023-04-15T00:14:55.082Z,40.72
2023-04-15T00:15:55.070Z,40.90
2023-04-15T00:16:55.101Z,40.59
2023-04-15T00:17:55.099Z,41.09
2023-04-15T00:18:55.033Z,41.36
2023-04-15T00:19:55.021Z,41.34
2023-04-15T00:20:55.016Z,41.14
2023-04-15T00:21:55.003Z,40.72
2023-04-15T00:22:55.020Z,41.54
2023-04-15T00:23:54.990Z,46.17
2023-04-15T00:24:54.969Z,41.25
2023-04-15T00:25:54.971Z,41.83
2023-04-15T00:26:54.958Z,42.13
2023-04-15T00:27:54.957Z,42.21
2023-04-15T00:28:54.929Z,41.14
2023-04-15T00:29:54.924Z,40.65
2023-04-15T00:30:54.966Z,41.31
2023-04-15T00:31:54.903Z,40.21
2023-04-15T00:32:54.946Z,41.28
2023-04-15T00:33:54.889Z,40.41
2023-04-15T00:34:54.874Z,40.90
2023-04-15T00:35:54.856Z,39.94
2023-04-15T00:36:54.857Z,39.90
2023-04-15T00:37:54.848Z,40.14
2023-04-15T00:38:54.828Z,43.71
2023-04-15T00:39:54.827Z,41.30
2023-04-15T00:40:54.817Z,40.98
2023-04-15T00:41:54.796Z,40.34
2023-04-15T00:42:54.793Z,40.85
2023-04-15T00:43:55.770Z,39.80
2023-04-15T00:44:54.774Z,40.86
2023-04-15T00:45:54.834Z,41.58
2023-04-15T00:46:54.750Z,42.18
2023-04-15T00:47:54.780Z,40.90
2023-04-15T00:48:54.725Z,41.10
2023-04-15T00:49:54.713Z,45.55
2023-04-15T00:50:54.704Z,42.46
2023-04-15T00:51:54.691Z,41.53
2023-04-15T00:52:54.701Z,41.47
2023-04-15T00:53:54.679Z,40.97
2023-04-15T00:54:54.657Z,40.53
2023-04-15T00:55:54.667Z,40.63
2023-04-15T00:56:54.641Z,41.05
2023-04-15T00:57:54.629Z,40.75
2023-04-15T00:58:54.643Z,40.25
2023-04-15T00:59:54.609Z,41.22
2023-04-15T01:00:54.620Z,43.28
2023-04-15T01:01:54.721Z,41.18
2023-04-15T01:02:54.797Z,41.20
2023-04-15T01:03:54.684Z,40.27
2023-04-15T01:04:54.559Z,40.18
2023-04-15T01:05:54.543Z,40.34
2023-04-15T01:06:54.536Z,40.34
2023-04-15T01:07:54.524Z,40.84
2023-04-15T01:08:54.521Z,41.22
2023-04-15T01:09:54.506Z,40.82
2023-04-15T01:10:54.491Z,40.71
2023-04-15T01:11:54.491Z,41.21
2023-04-15T01:12:54.468Z,39.98
2023-04-15T01:13:54.471Z,40.78
2023-04-15T01:14:54.457Z,40.72
2023-04-15T01:15:54.494Z,41.02
2023-04-15T01:16:54.426Z,40.41
2023-04-15T01:17:54.438Z,41.40
2023-04-15T01:18:54.413Z,40.63
2023-04-15T01:19:54.398Z,41.25
2023-04-15T01:20:54.387Z,41.80
2023-04-15T01:21:54.378Z,41.12
2023-04-15T01:22:54.374Z,41.32
2023-04-15T01:23:54.380Z,45.89
2023-04-15T01:24:54.375Z,40.93
2023-04-15T01:25:54.325Z,41.02
2023-04-15T01:26:54.331Z,41.30
2023-04-15T01:27:54.325Z,42.17
2023-04-15T01:28:54.307Z,41.34
2023-04-15T01:29:54.292Z,45.43
2023-04-15T01:30:54.279Z,42.02
2023-04-15T01:31:54.325Z,41.24
2023-04-15T01:32:54.303Z,44.77
2023-04-15T01:33:54.267Z,42.97
2023-04-15T01:34:54.240Z,42.54
2023-04-15T01:35:54.230Z,43.74
2023-04-15T01:36:54.215Z,45.87
2023-04-15T01:37:54.212Z,44.62
2023-04-15T01:38:54.210Z,45.30
2023-04-15T01:39:54.188Z,44.72
2023-04-15T01:40:54.177Z,46.51
2023-04-15T01:41:54.160Z,45.45
2023-04-15T01:42:54.155Z,44.69
2023-04-15T01:43:55.159Z,45.44
2023-04-15T01:44:54.142Z,44.82
2023-04-15T01:45:54.128Z,45.14
2023-04-15T01:46:54.155Z,44.77
2023-04-15T01:47:54.144Z,43.62
2023-04-15T01:48:54.109Z,43.59
2023-04-15T01:49:54.089Z,43.57
2023-04-15T01:50:54.078Z,42.70
2023-04-15T01:51:54.073Z,43.06
2023-04-15T01:52:54.063Z,44.01
2023-04-15T01:53:54.046Z,45.37
2023-04-15T01:54:54.052Z,41.59
2023-04-15T01:55:54.029Z,42.96
2023-04-15T01:56:54.020Z,43.49
2023-04-15T01:57:54.010Z,43.26
2023-04-15T01:58:54.000Z,44.16
2023-04-15T01:59:53.998Z,46.20
2023-04-15T02:00:54.009Z,43.28
2023-04-15T02:01:54.009Z,45.15
2023-04-15T02:02:54.038Z,44.97
2023-04-15T02:03:53.986Z,42.95
2023-04-15T02:04:53.937Z,41.85
2023-04-15T02:05:53.933Z,42.92
2023-04-15T02:06:53.917Z,41.76
2023-04-15T02:07:53.903Z,41.34
2023-04-15T02:08:53.900Z,41.41
2023-04-15T02:09:53.886Z,42.23
2023-04-15T02:10:53.873Z,42.81
2023-04-15T02:11:53.872Z,41.47
2023-04-15T02:12:53.859Z,41.25
2023-04-15T02:13:53.864Z,42.52
2023-04-15T02:14:53.833Z,41.92
2023-04-15T02:15:53.824Z,42.29
2023-04-15T02:16:53.858Z,41.86
2023-04-15T02:17:53.836Z,41.62
2023-04-15T02:18:53.813Z,41.68
2023-04-15T02:19:53.789Z,48.05
2023-04-15T02:20:53.767Z,42.83
2023-04-15T02:21:53.767Z,41.34
2023-04-15T02:22:53.752Z,44.18
2023-04-15T02:23:54.168Z,41.21
2023-04-15T02:24:54.747Z,41.10
2023-04-15T02:25:54.450Z,41.61
2023-04-15T02:26:53.709Z,41.25
2023-04-15T02:27:53.699Z,41.70
2023-04-15T02:28:53.710Z,41.93
2023-04-15T02:29:53.685Z,44.13
2023-04-15T02:30:53.768Z,42.82
2023-04-15T02:31:53.681Z,42.04
2023-04-15T02:32:53.672Z,41.22
2023-04-15T02:33:53.637Z,42.36
2023-04-15T02:34:53.635Z,42.53
2023-04-15T02:35:53.623Z,45.56
2023-04-15T02:36:53.604Z,42.81
2023-04-15T02:37:53.592Z,42.34
2023-04-15T02:38:53.590Z,43.21
2023-04-15T02:39:53.572Z,43.59
2023-04-15T02:40:53.572Z,42.76
2023-04-15T02:41:53.555Z,42.20
2023-04-15T02:42:53.541Z,43.66
2023-04-15T02:43:53.538Z,42.23
2023-04-15T02:44:53.538Z,42.96
2023-04-15T02:45:53.553Z,42.27
2023-04-15T02:46:53.506Z,41.25
2023-04-15T02:47:53.523Z,41.91
2023-04-15T02:48:53.482Z,44.21
2023-04-15T02:49:53.477Z,43.71
2023-04-15T02:50:54.463Z,45.83
2023-04-15T02:51:53.453Z,41.34
2023-04-15T02:52:53.442Z,40.53
2023-04-15T02:53:53.432Z,41.90
2023-04-15T02:54:53.433Z,44.15
2023-04-15T02:55:53.410Z,41.53
2023-04-15T02:56:53.399Z,42.03
2023-04-15T02:57:53.390Z,40.82
2023-04-15T02:58:53.381Z,41.53
2023-04-15T02:59:53.388Z,44.64
2023-04-15T03:00:53.400Z,45.88
2023-04-15T03:01:53.398Z,41.19
2023-04-15T03:02:53.396Z,43.01
2023-04-15T03:03:53.420Z,42.33
2023-04-15T03:04:53.331Z,42.61
2023-04-15T03:05:53.313Z,41.88
2023-04-15T03:06:53.301Z,42.23
2023-04-15T03:07:53.291Z,41.85
2023-04-15T03:08:53.277Z,42.89
2023-04-15T03:09:53.279Z,42.90
2023-04-15T03:10:53.258Z,42.18
2023-04-15T03:11:53.245Z,42.76
2023-04-15T03:12:53.246Z,42.56
2023-04-15T03:13:53.231Z,43.19
2023-04-15T03:14:53.240Z,44.28
2023-04-15T03:15:53.240Z,44.06
2023-04-15T03:16:53.205Z,43.60
2023-04-15T03:17:53.283Z,44.73
2023-04-15T03:18:53.176Z,42.86
2023-04-15T03:19:53.181Z,46.79
2023-04-15T03:20:53.230Z,43.13
2023-04-15T03:21:53.150Z,42.89
2023-04-15T03:22:53.155Z,43.78
2023-04-15T03:23:53.218Z,42.79
2023-04-15T03:24:53.225Z,43.75
2023-04-15T03:25:53.221Z,45.42
2023-04-15T03:26:53.183Z,45.73
2023-04-15T03:27:53.085Z,47.96
2023-04-15T03:28:53.072Z,46.05
2023-04-15T03:29:53.074Z,46.36
2023-04-15T03:30:53.070Z,47.90
2023-04-15T03:31:53.045Z,46.60
2023-04-15T03:32:53.063Z,46.26
2023-04-15T03:33:53.023Z,50.87
2023-04-15T03:34:53.047Z,46.05
2023-04-15T03:35:53.007Z,47.92
2023-04-15T03:36:52.999Z,48.64
2023-04-15T03:37:52.979Z,48.28
2023-04-15T03:38:52.983Z,47.08
2023-04-15T03:39:52.973Z,48.48
2023-04-15T03:40:52.966Z,46.84
2023-04-15T03:41:52.947Z,48.98
2023-04-15T03:42:52.932Z,48.20
2023-04-15T03:43:52.922Z,47.80
2023-04-15T03:44:52.927Z,46.99
2023-04-15T03:45:52.906Z,46.81
2023-04-15T03:46:53.005Z,46.76
2023-04-15T03:47:52.901Z,46.93
2023-04-15T03:48:52.882Z,48.40
2023-04-15T03:49:52.881Z,48.87
2023-04-15T03:50:52.842Z,45.95
2023-04-15T03:51:53.846Z,46.28
2023-04-15T03:52:52.831Z,46.80
2023-04-15T03:53:52.828Z,47.83
2023-04-15T03:54:52.812Z,51.26
2023-04-15T03:55:52.815Z,51.58
2023-04-15T03:56:52.792Z,47.50
2023-04-15T03:57:52.792Z,47.58
2023-04-15T03:58:52.788Z,46.70
2023-04-15T03:59:52.781Z,45.58
2023-04-15T04:00:52.832Z,46.72
2023-04-15T04:01:52.790Z,46.68
2023-04-15T04:02:52.939Z,50.08
2023-04-15T04:03:52.887Z,53.52
2023-04-15T04:04:52.762Z,49.96
2023-04-15T04:05:52.711Z,54.92
2023-04-15T04:06:52.692Z,49.04
2023-04-15T04:07:52.683Z,49.46
2023-04-15T04:08:52.675Z,48.17
2023-04-15T04:09:52.673Z,48.52
2023-04-15T04:10:52.666Z,47.12
2023-04-15T04:11:52.645Z,51.21
2023-04-15T04:12:52.641Z,48.46
2023-04-15T04:13:52.623Z,49.91
2023-04-15T04:14:52.619Z,46.88
2023-04-15T04:15:52.648Z,45.20
2023-04-15T04:16:52.716Z,44.53
2023-04-15T04:17:52.697Z,46.82
2023-04-15T04:18:52.570Z,46.59
2023-04-15T04:19:52.566Z,47.74
2023-04-15T04:20:52.563Z,44.63
2023-04-15T04:21:52.549Z,45.21
2023-04-15T04:22:52.534Z,48.50
2023-04-15T04:23:52.524Z,47.96
2023-04-15T04:24:52.513Z,48.58
2023-04-15T04:25:52.512Z,47.23
2023-04-15T04:26:52.495Z,45.98
2023-04-15T04:27:52.487Z,48.93
2023-04-15T04:28:52.490Z,47.38
2023-04-15T04:29:52.471Z,47.44
2023-04-15T04:30:52.467Z,48.57
2023-04-15T04:31:52.471Z,46.77
2023-04-15T04:32:52.488Z,48.03
2023-04-15T04:33:52.427Z,48.02
2023-04-15T04:34:52.423Z,48.97
2023-04-15T04:35:52.410Z,48.52
2023-04-15T04:36:52.396Z,47.15
2023-04-15T04:37:52.428Z,48.46
2023-04-15T04:38:52.367Z,47.25
2023-04-15T04:39:52.363Z,49.83
2023-04-15T04:40:52.363Z,50.07
2023-04-15T04:41:52.338Z,52.04
2023-04-15T04:42:52.332Z,49.29
2023-04-15T04:43:52.325Z,46.94
2023-04-15T04:44:52.315Z,47.12
2023-04-15T04:45:52.366Z,49.95
2023-04-15T04:46:52.292Z,50.58
2023-04-15T04:47:52.362Z,51.71
2023-04-15T04:48:52.266Z,48.64
2023-04-15T04:49:52.264Z,50.57
2023-04-15T04:50:52.262Z,50.49
2023-04-15T04:51:52.242Z,45.93
2023-04-15T04:52:52.225Z,48.02
2023-04-15T04:53:52.219Z,47.62
2023-04-15T04:54:52.210Z,47.08
2023-04-15T04:55:52.217Z,47.48
2023-04-15T04:56:52.186Z,48.33
2023-04-15T04:57:52.174Z,49.99
2023-04-15T04:58:52.165Z,48.26
2023-04-15T04:59:52.160Z,48.68
2023-04-15T05:00:52.199Z,52.10
2023-04-15T05:01:52.155Z,51.30
2023-04-15T05:02:52.222Z,48.04
2023-04-15T05:03:52.151Z,45.70
2023-04-15T05:04:52.107Z,48.17
2023-04-15T05:05:52.108Z,49.66
2023-04-15T05:06:52.090Z,47.44
2023-04-15T05:07:52.077Z,47.98
2023-04-15T05:08:52.082Z,46.86
2023-04-15T05:09:52.060Z,45.15
2023-04-15T05:10:52.061Z,51.70
2023-04-15T05:11:52.059Z,48.45
2023-04-15T05:12:52.029Z,45.58
2023-04-15T05:13:52.018Z,47.20
2023-04-15T05:14:52.014Z,44.07
2023-04-15T05:15:52.029Z,48.72
2023-04-15T05:16:51.992Z,44.76
2023-04-15T05:17:51.990Z,46.27
2023-04-15T05:18:52.975Z,43.23
2023-04-15T05:19:51.964Z,46.41
2023-04-15T05:20:51.961Z,49.81
2023-04-15T05:21:51.945Z,49.61
2023-04-15T05:22:51.940Z,45.72
2023-04-15T05:23:51.929Z,49.05
2023-04-15T05:24:51.913Z,48.12
2023-04-15T05:25:51.914Z,47.78
2023-04-15T05:26:51.928Z,46.31
2023-04-15T05:27:51.884Z,47.76
2023-04-15T05:28:51.872Z,49.81
2023-04-15T05:29:51.865Z,45.28
2023-04-15T05:30:51.884Z,52.17
2023-04-15T05:31:51.843Z,45.52
2023-04-15T05:32:51.884Z,45.95
2023-04-15T05:33:51.831Z,48.20
2023-04-15T05:34:51.812Z,53.23
2023-04-15T05:35:51.817Z,47.74
2023-04-15T05:36:51.803Z,50.62
2023-04-15T05:37:51.785Z,51.01
2023-04-15T05:38:51.773Z,55.70
2023-04-15T05:39:51.775Z,45.38
2023-04-15T05:40:51.763Z,46.95
2023-04-15T05:41:51.746Z,43.12
2023-04-15T05:42:51.743Z,44.83
2023-04-15T05:43:51.725Z,50.34
2023-04-15T05:44:51.714Z,42.20
2023-04-15T05:45:51.743Z,46.97
2023-04-15T05:46:51.692Z,53.48
2023-04-15T05:47:51.706Z,46.63
2023-04-15T05:48:51.668Z,45.58
2023-04-15T05:49:51.662Z,46.65
2023-04-15T05:50:51.667Z,45.15
2023-04-15T05:51:51.653Z,41.28
2023-04-15T05:52:51.638Z,44.39
2023-04-15T05:53:51.626Z,45.74
2023-04-15T05:54:51.615Z,48.01
2023-04-15T05:55:51.610Z,46.68
2023-04-15T05:56:51.593Z,49.14
2023-04-15T05:57:51.586Z,48.20
2023-04-15T05:58:53.690Z,46.86
2023-04-15T05:59:51.573Z,43.27
2023-04-15T06:00:51.561Z,51.85
2023-04-15T06:01:51.556Z,44.27
2023-04-15T06:02:51.610Z,50.28
2023-04-15T06:03:51.671Z,46.26
2023-04-15T06:04:51.557Z,54.72
2023-04-15T06:05:51.517Z,51.77
2023-04-15T06:06:51.497Z,54.34
2023-04-15T06:07:51.483Z,49.21
2023-04-15T06:08:51.472Z,49.36
2023-04-15T06:09:51.463Z,52.97
2023-04-15T06:10:51.471Z,50.90
2023-04-15T06:11:51.444Z,50.97
2023-04-15T06:12:51.433Z,45.55
2023-04-15T06:13:51.428Z,48.53
2023-04-15T06:14:51.420Z,51.17
2023-04-15T06:15:51.438Z,46.39
2023-04-15T06:16:51.400Z,48.91
2023-04-15T06:17:51.431Z,51.28
2023-04-15T06:18:51.379Z,50.63
2023-04-15T06:19:51.360Z,46.80
2023-04-15T06:20:52.371Z,51.49
2023-04-15T06:21:51.354Z,47.71
2023-04-15T06:22:51.336Z,51.99
2023-04-15T06:23:51.324Z,49.38
2023-04-15T06:24:51.337Z,51.06
2023-04-15T06:25:51.303Z,51.72
2023-04-15T06:26:51.302Z,52.84
2023-04-15T06:27:51.290Z,52.58
2023-04-15T06:28:51.335Z,55.19
2023-04-15T06:29:51.274Z,55.07
2023-04-15T06:30:51.271Z,56.23
2023-04-15T06:31:51.265Z,50.06
2023-04-15T06:32:51.289Z,50.97
2023-04-15T06:33:51.226Z,53.92
2023-04-15T06:34:51.221Z,57.80
2023-04-15T06:35:51.217Z,52.93
2023-04-15T06:36:51.209Z,55.89
2023-04-15T06:37:51.187Z,54.69
2023-04-15T06:38:51.173Z,53.68
2023-04-15T06:39:51.169Z,51.60
2023-04-15T06:40:51.166Z,53.65
2023-04-15T06:41:51.159Z,52.09
2023-04-15T06:42:51.146Z,47.96
2023-04-15T06:43:51.126Z,48.83
2023-04-15T06:44:51.135Z,51.14
2023-04-15T06:45:51.147Z,54.66
2023-04-15T06:46:51.102Z,48.33
2023-04-15T06:47:51.124Z,52.92
2023-04-15T06:48:51.076Z,51.87
2023-04-15T06:49:51.065Z,46.15
2023-04-15T06:50:51.074Z,48.70
2023-04-15T06:51:51.047Z,48.08
2023-04-15T06:52:51.039Z,49.25
2023-04-15T06:53:51.020Z,47.96
2023-04-15T06:54:51.026Z,49.73
2023-04-15T06:55:51.024Z,46.40
2023-04-15T06:56:51.000Z,48.85
2023-04-15T06:57:50.992Z,47.16
2023-04-15T06:58:50.976Z,46.90
2023-04-15T06:59:50.969Z,52.47
2023-04-15T07:00:50.992Z,47.93
2023-04-15T07:01:51.002Z,52.69
2023-04-15T07:02:50.943Z,47.43
2023-04-15T07:03:50.954Z,51.91
2023-04-15T07:04:50.921Z,53.67
2023-04-15T07:05:50.926Z,49.66
2023-04-15T07:06:50.901Z,50.11
2023-04-15T07:07:50.894Z,50.74
2023-04-15T07:08:50.884Z,52.28
2023-04-15T07:09:50.864Z,49.47
2023-04-15T07:10:51.870Z,51.97
2023-04-15T07:11:50.852Z,48.97
2023-04-15T07:12:50.924Z,53.92
2023-04-15T07:13:50.831Z,55.07
2023-04-15T07:14:50.822Z,47.87
2023-04-15T07:15:50.828Z,51.84
2023-04-15T07:16:50.837Z,49.23
2023-04-15T07:17:50.808Z,53.31
2023-04-15T07:18:50.785Z,52.01
2023-04-15T07:19:50.777Z,53.63
2023-04-15T07:20:50.775Z,52.64
2023-04-15T07:21:50.762Z,55.82
2023-04-15T07:22:50.752Z,53.28
2023-04-15T07:23:50.735Z,52.94
2023-04-15T07:24:50.723Z,49.79
2023-04-15T07:25:50.738Z,49.36
2023-04-15T07:26:50.702Z,50.89
2023-04-15T07:27:50.692Z,51.75
2023-04-15T07:28:50.682Z,57.53
2023-04-15T07:29:50.672Z,53.28
2023-04-15T07:30:50.760Z,56.15
2023-04-15T07:31:50.658Z,48.09
2023-04-15T07:32:50.653Z,49.54
2023-04-15T07:33:50.630Z,52.28
2023-04-15T07:34:50.620Z,50.35
2023-04-15T07:35:50.607Z,55.48
2023-04-15T07:36:50.677Z,53.47
2023-04-15T07:37:50.585Z,46.49
2023-04-15T07:38:50.579Z,48.92
2023-04-15T07:39:50.568Z,44.93
2023-04-15T07:40:50.574Z,54.72
2023-04-15T07:41:50.564Z,52.45
2023-04-15T07:42:50.544Z,48.03
2023-04-15T07:43:50.541Z,52.06
2023-04-15T07:44:50.530Z,46.22
2023-04-15T07:45:50.525Z,55.72
2023-04-15T07:46:50.501Z,54.08
2023-04-15T07:47:50.530Z,49.30
2023-04-15T07:48:50.480Z,43.07
2023-04-15T07:49:50.470Z,50.84
2023-04-15T07:50:50.470Z,53.63
2023-04-15T07:51:50.445Z,44.94
2023-04-15T07:52:50.433Z,51.59
2023-04-15T07:53:50.941Z,47.44
2023-04-15T07:54:50.417Z,52.25
2023-04-15T07:55:50.420Z,49.77
2023-04-15T07:56:50.400Z,50.91
2023-04-15T07:57:50.388Z,44.99
2023-04-15T07:58:50.377Z,47.99
2023-04-15T07:59:50.372Z,46.92
2023-04-15T08:00:50.371Z,51.77
2023-04-15T08:01:50.438Z,51.28
2023-04-15T08:02:50.511Z,47.11
2023-04-15T08:03:50.529Z,48.61
2023-04-15T08:04:50.409Z,48.55
2023-04-15T08:05:50.316Z,56.50
2023-04-15T08:06:50.317Z,48.49
2023-04-15T08:07:50.285Z,45.79
2023-04-15T08:08:50.273Z,45.91
2023-04-15T08:09:50.272Z,44.33
2023-04-15T08:10:52.514Z,51.83
2023-04-15T08:11:51.254Z,52.04
2023-04-15T08:12:50.230Z,50.26
2023-04-15T08:13:50.222Z,48.04
2023-04-15T08:14:50.209Z,48.75
2023-04-15T08:15:50.239Z,44.45
2023-04-15T08:16:50.191Z,45.15
2023-04-15T08:17:50.192Z,53.57
2023-04-15T08:18:50.166Z,43.44
2023-04-15T08:19:50.154Z,55.70
2023-04-15T08:20:50.144Z,50.74
2023-04-15T08:21:50.152Z,56.29
2023-04-15T08:22:50.121Z,54.97
2023-04-15T08:23:50.140Z,57.76
2023-04-15T08:24:50.102Z,56.12
2023-04-15T08:25:50.096Z,57.45
2023-04-15T08:26:50.103Z,56.77
2023-04-15T08:27:50.075Z,57.22
2023-04-15T08:28:50.066Z,53.44
2023-04-15T08:29:50.065Z,57.37
2023-04-15T08:30:50.041Z,54.46
2023-04-15T08:31:50.094Z,53.72
2023-04-15T08:32:50.074Z,55.70
2023-04-15T08:33:50.010Z,56.24
2023-04-15T08:34:50.006Z,56.66
2023-04-15T08:35:49.987Z,53.86
2023-04-15T08:36:49.991Z,50.99
2023-04-15T08:37:49.968Z,52.76
2023-04-15T08:38:49.959Z,51.99
2023-04-15T08:39:49.947Z,55.81
2023-04-15T08:40:49.937Z,50.00
2023-04-15T08:41:49.934Z,56.31
2023-04-15T08:42:49.916Z,53.85
2023-04-15T08:43:49.907Z,47.74
2023-04-15T08:44:49.892Z,50.50
2023-04-15T08:45:50.526Z,57.33
2023-04-15T08:46:49.922Z,57.28
2023-04-15T08:47:49.909Z,58.18
2023-04-15T08:48:49.851Z,58.34
2023-04-15T08:49:49.845Z,56.34
2023-04-15T08:50:49.836Z,56.60
2023-04-15T08:51:49.836Z,57.07
2023-04-15T08:52:50.554Z,56.58
2023-04-15T08:53:49.800Z,57.18
2023-04-15T08:54:49.786Z,59.22
2023-04-15T08:55:49.781Z,59.71
2023-04-15T08:56:49.830Z,58.51
2023-04-15T08:57:49.759Z,59.17
2023-04-15T08:58:49.743Z,59.87
2023-04-15T08:59:49.745Z,59.78
2023-04-15T09:00:49.734Z,58.17
2023-04-15T09:01:49.772Z,57.28
2023-04-15T09:02:49.788Z,57.86
2023-04-15T09:03:49.800Z,57.21
2023-04-15T09:04:49.704Z,54.19
2023-04-15T09:05:52.718Z,54.58
2023-04-15T09:06:49.672Z,56.95
2023-04-15T09:07:49.665Z,55.82
2023-04-15T09:08:49.645Z,52.77
2023-04-15T09:09:49.632Z,51.77
2023-04-15T09:10:49.625Z,51.82
2023-04-15T09:11:49.622Z,54.18
2023-04-15T09:12:49.598Z,55.86
2023-04-15T09:13:49.601Z,57.37
2023-04-15T09:14:49.577Z,59.94
2023-04-15T09:15:49.586Z,60.34
2023-04-15T09:16:50.529Z,60.11
2023-04-15T09:17:50.594Z,59.92
2023-04-15T09:18:49.542Z,58.33
2023-04-15T09:19:49.533Z,57.17
2023-04-15T09:20:49.519Z,58.08
2023-04-15T09:21:49.511Z,57.14
2023-04-15T09:22:49.563Z,58.51
2023-04-15T09:23:49.480Z,54.10
2023-04-15T09:24:49.471Z,53.82
2023-04-15T09:25:49.483Z,56.29
2023-04-15T09:26:49.459Z,57.85
2023-04-15T09:27:49.440Z,57.78
2023-04-15T09:28:49.445Z,58.29
2023-04-15T09:29:49.418Z,58.54
2023-04-15T09:30:50.947Z,60.08
2023-04-15T09:31:50.408Z,58.60
2023-04-15T09:32:49.452Z,61.31
2023-04-15T09:33:49.375Z,58.75
2023-04-15T09:34:49.368Z,59.99
2023-04-15T09:35:49.358Z,58.23
2023-04-15T09:36:51.076Z,56.10
2023-04-15T09:37:50.337Z,56.83
2023-04-15T09:38:49.319Z,58.54
2023-04-15T09:39:49.307Z,58.73
2023-04-15T09:40:49.297Z,58.90
2023-04-15T09:41:49.298Z,59.49
2023-04-15T09:42:50.372Z,58.11
2023-04-15T09:43:50.272Z,58.52
2023-04-15T09:44:49.258Z,59.30
2023-04-15T09:45:49.281Z,59.61
2023-04-15T09:46:49.245Z,60.85
2023-04-15T09:47:49.263Z,59.57
2023-04-15T09:48:49.212Z,60.38
2023-04-15T09:49:49.230Z,60.32
2023-04-15T09:50:49.195Z,56.63
2023-04-15T09:52:03.970Z,57.50
2023-04-15T09:52:51.169Z,57.82
2023-04-15T09:53:49.157Z,57.59
2023-04-15T09:54:49.150Z,60.00
2023-04-15T09:55:49.141Z,59.74
2023-04-15T09:56:49.134Z,57.83
2023-04-15T09:57:49.113Z,55.70
2023-04-15T09:58:49.106Z,57.99
2023-04-15T09:59:49.090Z,56.84
2023-04-15T10:00:49.087Z,53.67
2023-04-15T10:01:49.193Z,52.94
2023-04-15T10:02:49.220Z,57.51
2023-04-15T10:03:49.117Z,54.77
2023-04-15T10:04:49.038Z,54.59
2023-04-15T10:05:49.025Z,53.25
2023-04-15T10:06:49.034Z,55.18
2023-04-15T10:07:49.009Z,53.52
2023-04-15T10:08:49.003Z,52.90
2023-04-15T10:09:48.994Z,55.00
2023-04-15T10:10:48.974Z,57.21
2023-04-15T10:11:48.974Z,54.92
2023-04-15T10:12:48.958Z,56.32
2023-04-15T10:13:48.941Z,57.67
2023-04-15T10:14:48.925Z,58.67
2023-04-15T10:15:48.987Z,58.25
2023-04-15T10:16:48.940Z,56.23
2023-04-15T10:17:48.947Z,56.16
2023-04-15T10:18:48.890Z,58.32
2023-04-15T10:19:48.875Z,56.04
2023-04-15T10:20:48.871Z,55.17
2023-04-15T10:21:48.861Z,55.63
2023-04-15T10:22:48.861Z,55.30
2023-04-15T10:23:48.834Z,59.14
2023-04-15T10:24:48.820Z,55.73
2023-04-15T10:25:48.807Z,56.09
2023-04-15T10:26:48.801Z,54.70
2023-04-15T10:27:48.805Z,56.73
2023-04-15T10:28:48.782Z,52.39
2023-04-15T10:29:48.778Z,51.66
2023-04-15T10:30:48.772Z,50.62
2023-04-15T10:31:48.799Z,50.11
2023-04-15T10:32:48.766Z,52.85
2023-04-15T10:33:48.719Z,48.06
2023-04-15T10:34:48.716Z,54.58
2023-04-15T10:35:48.700Z,53.09
2023-04-15T10:36:48.690Z,54.61
2023-04-15T10:37:48.697Z,51.34
2023-04-15T10:38:48.676Z,48.90
2023-04-15T10:39:48.660Z,54.48
2023-04-15T10:40:48.652Z,53.16
2023-04-15T10:41:48.636Z,50.00
2023-04-15T10:42:48.635Z,53.32
2023-04-15T10:43:48.617Z,55.85
2023-04-15T10:44:48.610Z,58.93
2023-04-15T10:45:48.596Z,60.02
2023-04-15T10:46:48.609Z,59.05
2023-04-15T10:47:48.626Z,58.03
2023-04-15T10:48:48.565Z,56.84
2023-04-15T10:49:49.559Z,56.67
2023-04-15T10:50:48.547Z,57.04
2023-04-15T10:51:48.541Z,52.39
2023-04-15T10:52:48.534Z,52.25
2023-04-15T10:53:48.521Z,57.43
2023-04-15T10:54:49.058Z,51.67
2023-04-15T10:55:48.496Z,47.46
2023-04-15T10:56:48.545Z,48.14
2023-04-15T10:57:48.487Z,52.29
2023-04-15T10:58:48.489Z,56.68
2023-04-15T10:59:48.456Z,58.05
2023-04-15T11:00:48.451Z,55.89
2023-04-15T11:01:48.590Z,56.28
2023-04-15T11:02:48.550Z,50.73
2023-04-15T11:03:48.733Z,52.80
2023-04-15T11:04:48.457Z,52.93
2023-04-15T11:05:48.391Z,55.69
2023-04-15T11:06:48.416Z,49.76
2023-04-15T11:07:48.398Z,53.87
2023-04-15T11:08:48.430Z,50.14
2023-04-15T11:09:48.371Z,50.52
2023-04-15T11:10:48.346Z,52.61
2023-04-15T11:11:48.353Z,53.72
2023-04-15T11:12:48.349Z,54.22
2023-04-15T11:13:48.336Z,53.76
2023-04-15T11:14:48.315Z,51.55
2023-04-15T11:15:48.293Z,49.18
2023-04-15T11:16:48.357Z,47.61
2023-04-15T11:17:48.330Z,54.30
2023-04-15T11:18:48.276Z,49.79
2023-04-15T11:19:48.256Z,54.24
2023-04-15T11:20:48.297Z,48.28
2023-04-15T11:21:48.242Z,51.94
2023-04-15T11:22:48.365Z,55.94
2023-04-15T11:23:48.320Z,50.13
2023-04-15T11:24:48.229Z,51.70
2023-04-15T11:25:48.201Z,52.84
2023-04-15T11:26:48.202Z,55.93
2023-04-15T11:27:48.205Z,54.97
2023-04-15T11:28:48.233Z,56.15
2023-04-15T11:29:48.191Z,53.26
2023-04-15T11:30:48.144Z,53.73
2023-04-15T11:31:48.158Z,55.53
2023-04-15T11:32:48.188Z,58.24
2023-04-15T11:33:48.142Z,55.74
2023-04-15T11:34:48.114Z,52.74
2023-04-15T11:35:48.131Z,51.87
2023-04-15T11:36:48.114Z,50.93
2023-04-15T11:37:48.073Z,51.45
2023-04-15T11:38:48.112Z,49.00
2023-04-15T11:39:48.061Z,46.76
2023-04-15T11:40:48.047Z,52.31
2023-04-15T11:41:48.030Z,54.19
2023-04-15T11:42:50.141Z,51.25
2023-04-15T11:43:49.029Z,47.06
2023-04-15T11:44:48.006Z,47.60
2023-04-15T11:45:48.016Z,54.98
2023-04-15T11:46:47.988Z,48.72
2023-04-15T11:47:48.006Z,47.29
2023-04-15T11:48:47.972Z,52.05
2023-04-15T11:49:47.953Z,53.22
2023-04-15T11:50:47.960Z,54.71
2023-04-15T11:51:47.931Z,49.57
2023-04-15T11:52:47.924Z,54.20
2023-04-15T11:53:47.930Z,53.25
2023-04-15T11:54:47.908Z,54.24
2023-04-15T11:55:47.894Z,50.07
2023-04-15T11:56:47.881Z,50.96
2023-04-15T11:57:47.882Z,53.41
2023-04-15T11:58:47.873Z,51.60
2023-04-15T11:59:47.855Z,55.31
2023-04-15T12:00:47.840Z,53.45
2023-04-15T12:01:47.898Z,54.55
2023-04-15T12:02:47.921Z,52.46
2023-04-15T12:03:47.931Z,52.36
2023-04-15T12:04:47.920Z,52.12
2023-04-15T12:05:47.786Z,55.32
2023-04-15T12:06:47.781Z,51.44
2023-04-15T12:07:47.764Z,47.85
2023-04-15T12:08:47.775Z,51.35
2023-04-15T12:09:47.748Z,53.12
2023-04-15T12:10:47.736Z,48.70
2023-04-15T12:11:47.720Z,46.26
2023-04-15T12:12:48.714Z,51.39
2023-04-15T12:13:47.718Z,49.51
2023-04-15T12:14:47.700Z,47.94
2023-04-15T12:15:47.730Z,47.13
2023-04-15T12:16:48.646Z,49.23
2023-04-15T12:17:51.659Z,53.74
2023-04-15T12:18:47.676Z,52.93
2023-04-15T12:19:47.648Z,48.12
2023-04-15T12:20:47.636Z,55.12
2023-04-15T12:21:47.631Z,47.35
2023-04-15T12:22:47.616Z,50.22
2023-04-15T12:23:47.620Z,54.38
2023-04-15T12:24:47.595Z,58.72
2023-04-15T12:25:47.592Z,50.60
2023-04-15T12:26:47.580Z,46.79
2023-04-15T12:27:47.568Z,46.95
2023-04-15T12:28:47.580Z,52.80
2023-04-15T12:29:47.549Z,51.18
2023-04-15T12:30:47.542Z,53.95
2023-04-15T12:31:47.549Z,50.99
2023-04-15T12:32:47.586Z,51.91
2023-04-15T12:33:47.541Z,51.08
2023-04-15T12:34:47.498Z,55.25
2023-04-15T12:35:47.502Z,53.18
2023-04-15T12:36:47.479Z,49.88
2023-04-15T12:37:47.473Z,57.02
2023-04-15T12:38:47.483Z,57.45
2023-04-15T12:39:47.448Z,58.47
2023-04-15T12:40:47.453Z,51.67
2023-04-15T12:41:47.430Z,50.99
2023-04-15T12:42:47.419Z,49.99
2023-04-15T12:43:47.406Z,49.55
2023-04-15T12:44:47.412Z,51.76
2023-04-15T12:45:47.385Z,48.57
2023-04-15T12:46:48.097Z,44.22
2023-04-15T12:47:47.406Z,48.63
2023-04-15T12:48:48.105Z,48.26
2023-04-15T12:49:47.369Z,52.84
2023-04-15T12:50:47.340Z,50.71
2023-04-15T12:51:47.334Z,54.06
2023-04-15T12:52:47.326Z,53.05